Ryoho Maru No.2 — JD2964 — position and weather

sailwx.info

Track history (hours):
 
Tides and Currents Weather Stations Pressure Air Temp Water Temp Dewpoint Dewpoint Depression Visibility Wind Speed Wind Dir Waves Ship Positions

Ryoho Maru No.2

Last reported at 2017-Mar-27 14:10 UTC. Time now 2017-Mar-28 10:10 UTC.
Position N 34°53' E 139°49'.

Length 57 m; draft 4 m.

Type: Tanker. MMSI: 431001062.

Date/timePositionNaut miles runAvg speedWind from/ knotsBaromVisibWave heightAir tempDewpointWater temp
2017-Mar-27 14:10N 34°53' E 139°49'5 8.6
2017-Mar-27 13:33N 34°57' E 139°45'9 9.4
2017-Mar-27 12:33N 35°06' E 139°47'1010.1
2017-Mar-27 11:33N 35°16' E 139°46'9 9.2
2017-Mar-27 10:33N 35°25' E 139°44'4 4.3
2017-Mar-27 09:33N 35°29' E 139°46'0 0.0
2017-Mar-27 08:33N 35°29' E 139°46'0 0.0
2017-Mar-27 07:33N 35°29' E 139°47'0 0.0
2017-Mar-27 06:34N 35°29' E 139°47'0 0.1
2017-Mar-27 05:30N 35°29' E 139°47'0 0.0
2017-Mar-27 04:33N 35°29' E 139°47'0 0.0
2017-Mar-27 03:33N 35°29' E 139°47'3 2.4
2017-Mar-27 02:31N 35°32' E 139°45'0 0.0
2017-Mar-27 01:31N 35°32' E 139°45'0 0.0
2017-Mar-27 00:31N 35°32' E 139°45'1 0.6
2017-Mar-26 23:33N 35°31' E 139°46'2 2.0
2017-Mar-26 22:33N 35°29' E 139°47'0 0.0
2017-Mar-26 21:33N 35°29' E 139°47'0 0.0
2017-Mar-26 20:31N 35°29' E 139°47'0 0.0
2017-Mar-26 19:32N 35°29' E 139°47'0 0.0
2017-Mar-26 18:32N 35°29' E 139°47'0 0.0
2017-Mar-26 17:32N 35°29' E 139°47'0 0.0
2017-Mar-26 16:32N 35°29' E 139°47'0 0.0
2017-Mar-26 15:32N 35°29' E 139°47'0 0.0
2017-Mar-26 14:32N 35°29' E 139°47'0 0.0
2017-Mar-26 13:32N 35°29' E 139°47'0 0.0
2017-Mar-26 12:32N 35°29' E 139°47'0 0.0
2017-Mar-26 11:32N 35°29' E 139°46'0 0.0
2017-Mar-26 10:32N 35°29' E 139°46'0 0.0
2017-Mar-26 09:32N 35°29' E 139°47'0 0.0
2017-Mar-26 08:32N 35°29' E 139°46'0 0.1
2017-Mar-26 07:32N 35°29' E 139°47'0 0.0
2017-Mar-26 06:32N 35°29' E 139°46'0 0.0
2017-Mar-26 05:32N 35°29' E 139°47'0 0.0
2017-Mar-26 04:32N 35°29' E 139°47'0 0.0
2017-Mar-26 03:32N 35°29' E 139°47'0 0.0
2017-Mar-26 02:32N 35°29' E 139°47'0 0.0
2017-Mar-26 01:32N 35°29' E 139°47'0 0.0
2017-Mar-26 00:32N 35°29' E 139°46'0 0.0
2017-Mar-25 23:32N 35°29' E 139°46'0 0.0
2017-Mar-25 22:32N 35°29' E 139°46'0 0.0
2017-Mar-25 21:32N 35°29' E 139°46'0 0.0
2017-Mar-25 20:32N 35°29' E 139°46'0 0.0
2017-Mar-25 19:32N 35°29' E 139°46'0 0.0
2017-Mar-25 18:32N 35°29' E 139°46'0 0.0
2017-Mar-25 17:32N 35°29' E 139°46'0 0.0
2017-Mar-25 16:32N 35°29' E 139°46'0 0.0
2017-Mar-25 15:32N 35°29' E 139°46'0 0.0
2017-Mar-25 14:32N 35°29' E 139°46'0 0.0
2017-Mar-25 13:32N 35°29' E 139°46'0 0.0
2017-Mar-25 12:32N 35°29' E 139°46'0 0.0
2017-Mar-25 11:32N 35°29' E 139°46'0 0.0
2017-Mar-25 10:32N 35°29' E 139°46'0 0.0
2017-Mar-25 09:32N 35°29' E 139°46'0 0.0
2017-Mar-25 08:32N 35°29' E 139°46'0 0.0
2017-Mar-25 07:29N 35°29' E 139°46'0 0.0
2017-Mar-25 06:32N 35°29' E 139°46'0 0.0
2017-Mar-25 05:32N 35°29' E 139°46'8 8.7
2017-Mar-25 04:33N 35°30' E 139°57'3 0.1
2017-Mar-23 23:26N 35°29' E 139°60'9 9.9
2017-Mar-23 22:33N 35°27' E 139°50'10 9.7
2017-Mar-23 21:33N 35°17' E 139°45'10 9.5
2017-Mar-23 20:33N 35°08' E 139°47'  
Track history (hours):
 
Tides and Currents Weather Stations Pressure Air Temp Water Temp Dewpoint Dewpoint Depression Visibility Wind Speed Wind Dir Waves Ship Positions

Ryoho Maru No.2

Last reported at 2017-Mar-27 14:10 UTC. Time now 2017-Mar-28 10:10 UTC.
Position N 34°53' E 139°49'.

Length 57 m; draft 4 m.

Type: Tanker. MMSI: 431001062.

Date/timePositionNaut miles runAvg speedWind from/ knotsBaromVisibWave heightAir tempDewpointWater temp
2017-Mar-27 14:10N 34°53' E 139°49'5 8.6
2017-Mar-27 13:33N 34°57' E 139°45'9 9.4
2017-Mar-27 12:33N 35°06' E 139°47'1010.1
2017-Mar-27 11:33N 35°16' E 139°46'9 9.2
2017-Mar-27 10:33N 35°25' E 139°44'4 4.3
2017-Mar-27 09:33N 35°29' E 139°46'0 0.0
2017-Mar-27 08:33N 35°29' E 139°46'0 0.0
2017-Mar-27 07:33N 35°29' E 139°47'0 0.0
2017-Mar-27 06:34N 35°29' E 139°47'0 0.1
2017-Mar-27 05:30N 35°29' E 139°47'0 0.0
2017-Mar-27 04:33N 35°29' E 139°47'0 0.0
2017-Mar-27 03:33N 35°29' E 139°47'3 2.4
2017-Mar-27 02:31N 35°32' E 139°45'0 0.0
2017-Mar-27 01:31N 35°32' E 139°45'0 0.0
2017-Mar-27 00:31N 35°32' E 139°45'1 0.6
2017-Mar-26 23:33N 35°31' E 139°46'2 2.0
2017-Mar-26 22:33N 35°29' E 139°47'0 0.0
2017-Mar-26 21:33N 35°29' E 139°47'0 0.0
2017-Mar-26 20:31N 35°29' E 139°47'0 0.0
2017-Mar-26 19:32N 35°29' E 139°47'0 0.0
2017-Mar-26 18:32N 35°29' E 139°47'0 0.0
2017-Mar-26 17:32N 35°29' E 139°47'0 0.0
2017-Mar-26 16:32N 35°29' E 139°47'0 0.0
2017-Mar-26 15:32N 35°29' E 139°47'0 0.0
2017-Mar-26 14:32N 35°29' E 139°47'0 0.0
2017-Mar-26 13:32N 35°29' E 139°47'0 0.0
2017-Mar-26 12:32N 35°29' E 139°47'0 0.0
2017-Mar-26 11:32N 35°29' E 139°46'0 0.0
2017-Mar-26 10:32N 35°29' E 139°46'0 0.0
2017-Mar-26 09:32N 35°29' E 139°47'0 0.0
2017-Mar-26 08:32N 35°29' E 139°46'0 0.1
2017-Mar-26 07:32N 35°29' E 139°47'0 0.0
2017-Mar-26 06:32N 35°29' E 139°46'0 0.0
2017-Mar-26 05:32N 35°29' E 139°47'0 0.0
2017-Mar-26 04:32N 35°29' E 139°47'0 0.0
2017-Mar-26 03:32N 35°29' E 139°47'0 0.0
2017-Mar-26 02:32N 35°29' E 139°47'0 0.0
2017-Mar-26 01:32N 35°29' E 139°47'0 0.0
2017-Mar-26 00:32N 35°29' E 139°46'0 0.0
2017-Mar-25 23:32N 35°29' E 139°46'0 0.0
2017-Mar-25 22:32N 35°29' E 139°46'0 0.0
2017-Mar-25 21:32N 35°29' E 139°46'0 0.0
2017-Mar-25 20:32N 35°29' E 139°46'0 0.0
2017-Mar-25 19:32N 35°29' E 139°46'0 0.0
2017-Mar-25 18:32N 35°29' E 139°46'0 0.0
2017-Mar-25 17:32N 35°29' E 139°46'0 0.0
2017-Mar-25 16:32N 35°29' E 139°46'0 0.0
2017-Mar-25 15:32N 35°29' E 139°46'0 0.0
2017-Mar-25 14:32N 35°29' E 139°46'0 0.0
2017-Mar-25 13:32N 35°29' E 139°46'0 0.0
2017-Mar-25 12:32N 35°29' E 139°46'0 0.0
2017-Mar-25 11:32N 35°29' E 139°46'0 0.0
2017-Mar-25 10:32N 35°29' E 139°46'0 0.0
2017-Mar-25 09:32N 35°29' E 139°46'0 0.0
2017-Mar-25 08:32N 35°29' E 139°46'0 0.0
2017-Mar-25 07:29N 35°29' E 139°46'0 0.0
2017-Mar-25 06:32N 35°29' E 139°46'0 0.0
2017-Mar-25 05:32N 35°29' E 139°46'8 8.7
2017-Mar-25 04:33N 35°30' E 139°57'3 0.1
2017-Mar-23 23:26N 35°29' E 139°60'9 9.9
2017-Mar-23 22:33N 35°27' E 139°50'10 9.7
2017-Mar-23 21:33N 35°17' E 139°45'10 9.5
2017-Mar-23 20:33N 35°08' E 139°47'  

Dump ship's entire track history